首页
METAR-TAF:

METAR-TAF

机场 :

里士满国际机场

里士满, 弗吉尼亚州, 美国

纬度: 37-30-40N, 经度: 077-19-24W, 海拔: 51米

当前天气观测

该预报发布于53分钟前的07:54 UTC
风速5节,风向
温度 -1°C
湿度 80%
气压 1017 hPa
能見度: 16.1公里
散云层高于22000英尺

METAR: KRIC 170754Z 36005KT 10SM SCT220 M01/M04 A3004 RMK AO2 SLP180 T10111044 $

时间: 03:47 (08:47 UTC)

预报

该预报发布于3小时和13分钟前的05:34 UTC
预报有效从17日的 06点(UTC)到 18日的 06点(UTC)
风速3节,风向多变
能見度: 10公里
散云层高于25000英尺
从 17日的 1500点(UTC)
风速5节,风向东转东北
能見度: 10公里
多云层高于20000英尺
从 17日的 1800点(UTC)
风速5节,风向东转东南
能見度: 10公里
阴天层高于5000英尺
小雨
从 17日的 2100点(UTC)
风速4节,风向东南
能見度: 8.0公里
散云层高于1000英尺
阴天层高于3000英尺
小雨
从 17日的 2300点(UTC)
风速4节,风向南转南东
能見度: 8.0公里
阴天层高于1500英尺
小雨
从 18日的 0200点(UTC)
风速3节,风向多变
能見度: 4.8公里
阴天层高于800英尺
小雨, 轻雾

TAF: KRIC 170534Z 1706/1806 VRB03KT P6SM SCT250 FM171500 07005KT P6SM BKN200 FM171800 11005KT P6SM -RA OVC050 FM172100 14004KT 5SM -RA SCT010 OVC030 FM172300 15004KT 5SM -RA OVC015 FM180200 VRB03KT 3SM -RA BR OVC008

超过4000个机场的气象观测和天气预报(METAR&TAF报告)。

可查询的气象台以黄色和红色小点在地图上表示。

将鼠标移到小点上方,可查看气象台名称。

然后点击查看天气观测和预报。

如需切换地图:点击带黑十字的绿色按钮放大地图;点击带横线的绿色按钮缩小地图;或者点击绿色箭头查看邻近地区的地图。


METAR-TAF: